Time;durP1;ratioP1;P1;durP2;ratioP2;P2;SDS_P1;SDS_P2;PMS_P1;PMS_P2;Temp;Humidity;BMP_temperature;BMP_pressure;BME280_temperature;BME280_humidity;BME280_pressure;Samples;Min_cycle;Max_cycle;Signal;HPM_P1;HPM_P2
2022/07/18 00:00:46;;;;;;;5.83;5.20;;;18.20;1.00;;;;;;6352443;22;20408;-80
2022/07/18 00:03:12;;;;;;;10.13;5.80;;;18.20;1.00;;;;;;6352895;22;20389;-79
2022/07/18 00:05:39;;;;;;;7.30;5.10;;;18.20;1.00;;;;;;6349859;22;20508;-80
2022/07/18 00:08:09;;;;;;;7.90;6.07;;;18.30;1.00;;;;;;6350908;22;20964;-80
2022/07/18 00:10:36;;;;;;;6.10;5.07;;;18.30;1.00;;;;;;6352481;22;20445;-80
2022/07/18 00:13:03;;;;;;;6.03;5.17;;;18.40;1.00;;;;;;6351701;22;20421;-81
2022/07/18 00:15:33;;;;;;;6.00;5.40;;;18.40;1.00;;;;;;6352972;22;20405;-79
2022/07/18 00:18:43;;;;;;;5.90;4.57;;;18.40;1.00;;;;;;6358914;22;20394;-82
2022/07/18 00:21:38;;;;;;;5.73;5.07;;;18.40;1.00;;;;;;6301257;22;20412;-81
2022/07/18 00:27:08;;;;;;;10.13;6.20;;;18.40;1.00;;;;;;6313210;22;20407;-80
2022/07/18 00:29:38;;;;;;;5.80;5.30;;;18.40;1.00;;;;;;6352965;22;20439;-79
2022/07/18 00:32:06;;;;;;;7.33;6.03;;;18.40;1.00;;;;;;6351290;22;20431;-80
2022/07/18 00:34:32;;;;;;;6.90;6.20;;;18.30;1.00;;;;;;6353138;22;20496;-80
2022/07/18 00:36:59;;;;;;;6.40;5.80;;;18.30;1.00;;;;;;6351791;22;20396;-80
2022/07/18 00:39:28;;;;;;;6.63;5.90;;;18.30;1.00;;;;;;6352593;22;20417;-80
2022/07/18 00:41:55;;;;;;;6.27;5.77;;;18.30;1.00;;;;;;6351089;22;20844;-80
2022/07/18 00:44:24;;;;;;;6.23;5.60;;;18.30;1.00;;;;;;6351495;22;20441;-80
2022/07/18 00:46:53;;;;;;;7.20;5.57;;;18.30;1.00;;;;;;6350292;22;20479;-79
2022/07/18 00:49:20;;;;;;;5.57;4.77;;;18.30;1.00;;;;;;6352414;22;20436;-80
2022/07/18 00:51:49;;;;;;;6.90;5.13;;;18.30;1.00;;;;;;6352416;22;20425;-80
2022/07/18 00:54:16;;;;;;;6.33;4.93;;;18.30;1.00;;;;;;6353104;22;20425;-80
2022/07/18 00:56:46;;;;;;;7.50;6.10;;;18.30;1.00;;;;;;6351152;22;20417;-79
2022/07/18 00:59:13;;;;;;;8.90;5.87;;;18.30;1.00;;;;;;6351638;22;20517;-79
2022/07/18 01:01:48;;;;;;;6.17;5.40;;;18.20;1.00;;;;;;6336580;22;20846;-79
2022/07/18 01:04:18;;;;;;;5.20;4.70;;;18.20;1.00;;;;;;6349553;22;20486;-80
2022/07/18 01:06:46;;;;;;;4.67;4.20;;;18.20;1.00;;;;;;6349548;22;20441;-79
2022/07/18 01:09:13;;;;;;;6.10;4.60;;;18.20;1.00;;;;;;6352433;22;20410;-80
2022/07/18 01:11:40;;;;;;;5.67;4.60;;;18.20;1.00;;;;;;6352462;22;20420;-80
2022/07/18 01:14:09;;;;;;;10.20;4.63;;;18.40;1.00;;;;;;6350748;22;20417;-80
2022/07/18 01:16:37;;;;;;;6.30;4.87;;;18.40;1.00;;;;;;6348833;22;20491;-79
2022/07/18 01:19:04;;;;;;;6.20;4.60;;;18.40;1.00;;;;;;6349671;22;20409;-79
2022/07/18 01:21:33;;;;;;;6.07;4.80;;;18.40;1.00;;;;;;6353648;22;20526;-78
2022/07/18 01:24:00;;;;;;;5.53;4.60;;;18.40;1.00;;;;;;6350642;22;20494;-79
2022/07/18 01:26:28;;;;;;;8.33;5.27;;;18.30;1.00;;;;;;6352525;22;20479;-79
2022/07/18 01:28:55;;;;;;;5.63;4.37;;;18.20;1.00;;;;;;6350604;22;20459;-78
2022/07/18 01:31:22;;;;;;;4.93;4.43;;;18.20;1.00;;;;;;6354049;22;20424;-79
2022/07/18 01:33:49;;;;;;;7.23;4.80;;;18.10;1.00;;;;;;6351118;22;20378;-79
2022/07/18 01:36:16;;;;;;;6.43;5.20;;;18.00;1.00;;;;;;6352810;22;20404;-79
2022/07/18 01:38:44;;;;;;;6.47;4.43;;;17.90;1.00;;;;;;6350361;22;20417;-78
2022/07/18 01:41:11;;;;;;;4.50;4.03;;;17.80;1.00;;;;;;6351858;22;20504;-80
2022/07/18 01:43:42;;;;;;;6.23;4.17;;;17.70;1.00;;;;;;6352417;22;20859;-79
2022/07/18 01:46:12;;;;;;;4.93;4.07;;;17.70;1.00;;;;;;6351042;22;21055;-79
2022/07/18 01:48:40;;;;;;;5.37;4.87;;;17.70;1.00;;;;;;6352207;22;20428;-80
2022/07/18 01:51:09;;;;;;;6.60;3.80;;;17.60;1.00;;;;;;6351805;22;20412;-79
2022/07/18 01:53:37;;;;;;;6.60;4.57;;;17.60;1.00;;;;;;6353544;22;20429;-80
2022/07/18 01:56:06;;;;;;;6.23;5.17;;;17.60;1.00;;;;;;6351787;22;20428;-79
2022/07/18 01:58:33;;;;;;;6.80;5.23;;;17.60;1.00;;;;;;6353304;22;20370;-80
2022/07/18 02:01:00;;;;;;;5.77;4.90;;;17.60;1.00;;;;;;6351379;22;20448;-80
2022/07/18 02:03:28;;;;;;;5.53;4.37;;;17.60;1.00;;;;;;6352537;22;20502;-78
2022/07/18 02:05:54;;;;;;;5.80;4.60;;;17.60;1.00;;;;;;6350772;22;21435;-78
2022/07/18 02:08:21;;;;;;;5.77;4.73;;;17.50;1.00;;;;;;6352406;22;20409;-78
2022/07/18 02:10:51;;;;;;;8.20;5.40;;;17.50;1.00;;;;;;6351569;22;20457;-79
2022/07/18 02:13:23;;;;;;;5.87;4.80;;;17.40;1.00;;;;;;6352662;22;20489;-79
2022/07/18 02:15:50;;;;;;;6.50;4.70;;;17.40;1.00;;;;;;6351403;22;20420;-79
2022/07/18 02:18:18;;;;;;;5.77;5.17;;;17.30;1.00;;;;;;6353189;22;20434;-80
2022/07/18 02:20:45;;;;;;;4.77;4.27;;;17.30;1.00;;;;;;6350802;22;20417;-78
2022/07/18 02:23:12;;;;;;;6.20;4.13;;;17.20;1.00;;;;;;6350766;22;20616;-79
2022/07/18 02:25:39;;;;;;;8.07;4.50;;;17.20;1.00;;;;;;6352390;22;20468;-79
2022/07/18 02:28:06;;;;;;;8.50;5.47;;;17.10;1.00;;;;;;6351961;22;20381;-79
2022/07/18 02:30:34;;;;;;;4.87;4.47;;;17.10;1.00;;;;;;6354372;22;20397;-79
2022/07/18 02:33:01;;;;;;;7.67;4.80;;;17.00;1.00;;;;;;6353647;22;20483;-79
2022/07/18 02:35:28;;;;;;;5.30;4.80;;;16.90;1.00;;;;;;6352879;22;20464;-79
2022/07/18 02:37:55;;;;;;;7.80;5.60;;;16.90;1.00;;;;;;6351490;22;20495;-79
2022/07/18 02:40:22;;;;;;;6.90;4.50;;;16.80;1.00;;;;;;6352786;22;21003;-80
2022/07/18 02:42:49;;;;;;;5.67;5.10;;;16.70;1.00;;;;;;6352162;22;20508;-79
2022/07/18 02:45:16;;;;;;;6.40;4.60;;;16.70;1.00;;;;;;6353681;22;20401;-80
2022/07/18 02:47:44;;;;;;;8.60;5.60;;;16.60;1.00;;;;;;6352425;22;20484;-80
2022/07/18 02:50:12;;;;;;;7.07;4.80;;;16.60;1.00;;;;;;6353205;22;20424;-81
2022/07/18 02:52:40;;;;;;;6.30;5.40;;;16.60;1.00;;;;;;6351748;22;20805;-82
2022/07/18 02:55:09;;;;;;;7.20;5.20;;;16.60;1.00;;;;;;6350660;22;20425;-80
2022/07/18 02:57:36;;;;;;;5.47;4.93;;;16.50;1.00;;;;;;6351646;22;20409;-80
2022/07/18 03:00:04;;;;;;;6.80;4.80;;;16.50;1.00;;;;;;6351732;22;20488;-80
2022/07/18 03:02:31;;;;;;;6.80;4.87;;;16.50;1.00;;;;;;6353273;22;20420;-81
2022/07/18 03:05:01;;;;;;;8.03;5.07;;;16.50;1.00;;;;;;6323466;22;20428;-79
2022/07/18 03:07:27;;;;;;;6.40;5.80;;;16.40;1.00;;;;;;6351403;22;20436;-79
2022/07/18 03:09:55;;;;;;;5.03;4.50;;;16.40;1.00;;;;;;6346725;22;20432;-79
2022/07/18 03:12:22;;;;;;;6.63;4.40;;;16.40;1.00;;;;;;6350999;22;20426;-79
2022/07/18 03:14:48;;;;;;;8.07;6.50;;;16.40;1.00;;;;;;6350291;22;20467;-79
2022/07/18 03:17:15;;;;;;;7.93;4.80;;;16.40;1.00;;;;;;6351301;22;20517;-79
2022/07/18 03:19:42;;;;;;;6.40;4.90;;;16.30;1.00;;;;;;6350334;22;20377;-79
2022/07/18 03:22:11;;;;;;;6.47;4.50;;;16.30;1.00;;;;;;6351822;22;20409;-79
2022/07/18 03:24:39;;;;;;;6.07;5.40;;;16.30;1.00;;;;;;6352040;22;20452;-79
2022/07/18 03:27:06;;;;;;;5.50;4.73;;;16.20;1.00;;;;;;6350751;22;20437;-80
2022/07/18 03:29:33;;;;;;;5.70;5.20;;;16.20;1.00;;;;;;6351607;22;20421;-79
2022/07/18 03:31:59;;;;;;;6.30;4.83;;;16.10;1.00;;;;;;6349575;22;20381;-79
2022/07/18 03:34:27;;;;;;;9.50;6.43;;;16.00;1.00;;;;;;6352472;22;20408;-80
2022/07/18 03:36:54;;;;;;;9.33;5.47;;;16.00;1.00;;;;;;6336139;22;20447;-78
2022/07/18 03:39:22;;;;;;;9.10;6.37;;;16.00;1.00;;;;;;6349732;22;20421;-79
2022/07/18 03:41:51;;;;;;;14.43;5.50;;;16.00;1.00;;;;;;6349199;22;20921;-80
2022/07/18 03:44:18;;;;;;;12.27;5.93;;;15.90;1.00;;;;;;6350461;22;20437;-79
2022/07/18 03:46:45;;;;;;;11.03;6.20;;;15.90;1.00;;;;;;6349498;22;20444;-79
2022/07/18 03:49:12;;;;;;;9.90;5.97;;;16.00;1.00;;;;;;6323829;22;20457;-79
2022/07/18 03:51:39;;;;;;;11.37;6.47;;;16.00;1.00;;;;;;6352570;22;20452;-79
2022/07/18 03:54:06;;;;;;;23.53;8.27;;;16.00;1.00;;;;;;6334153;22;20477;-79
2022/07/18 03:56:34;;;;;;;9.33;6.30;;;16.10;1.00;;;;;;6353102;22;20964;-80
2022/07/18 03:59:09;;;;;;;12.73;7.57;;;16.10;1.00;;;;;;6351079;22;20448;-79
2022/07/18 04:01:36;;;;;;;9.57;7.30;;;16.10;1.00;;;;;;6352318;22;20421;-80
2022/07/18 04:04:02;;;;;;;9.07;6.90;;;16.10;1.00;;;;;;6348760;22;20401;-79
2022/07/18 04:06:29;;;;;;;9.77;6.40;;;16.10;1.00;;;;;;6352000;22;20512;-80
2022/07/18 04:08:56;;;;;;;8.53;6.37;;;16.10;1.00;;;;;;6350085;22;20823;-79
2022/07/18 04:11:25;;;;;;;9.20;7.30;;;16.10;1.00;;;;;;6351066;22;20409;-79
2022/07/18 04:13:54;;;;;;;8.67;5.87;;;16.20;1.00;;;;;;6351475;22;20496;-78
2022/07/18 04:16:21;;;;;;;7.63;6.40;;;16.20;1.00;;;;;;6352158;22;21192;-79
2022/07/18 04:18:49;;;;;;;11.70;7.57;;;16.20;1.00;;;;;;6350914;22;20922;-80
2022/07/18 04:21:16;;;;;;;10.90;7.43;;;16.20;1.00;;;;;;6351194;22;20401;-79
2022/07/18 04:23:43;;;;;;;7.73;6.53;;;16.20;1.00;;;;;;6351161;22;20407;-79
2022/07/18 04:26:10;;;;;;;9.67;7.00;;;16.20;1.00;;;;;;6352300;22;20421;-79
2022/07/18 04:28:37;;;;;;;10.73;7.43;;;16.30;1.00;;;;;;6352847;22;20445;-80
2022/07/18 04:31:06;;;;;;;6.97;5.80;;;16.30;1.00;;;;;;6351403;22;20485;-80
2022/07/18 04:33:33;;;;;;;8.27;5.90;;;16.30;1.00;;;;;;6354965;22;21125;-80
2022/07/18 04:36:00;;;;;;;11.27;6.57;;;16.40;1.00;;;;;;6352162;22;21017;-80
2022/07/18 04:38:27;;;;;;;9.80;6.00;;;16.50;1.00;;;;;;6353528;22;20494;-80
2022/07/18 04:40:54;;;;;;;9.17;6.30;;;16.50;1.00;;;;;;6349497;22;20414;-80
2022/07/18 04:43:21;;;;;;;10.47;6.30;;;16.60;1.00;;;;;;6352230;22;20429;-79
2022/07/18 04:45:47;;;;;;;7.20;5.33;;;16.60;1.00;;;;;;6352272;22;20429;-79
2022/07/18 04:48:16;;;;;;;7.40;5.80;;;16.60;1.00;;;;;;6351734;22;20428;-78
2022/07/18 04:50:43;;;;;;;6.67;5.90;;;16.60;1.00;;;;;;6352297;22;20513;-79
2022/07/18 04:53:10;;;;;;;7.00;6.03;;;16.70;1.00;;;;;;6353087;22;20436;-80
2022/07/18 04:55:38;;;;;;;10.83;7.60;;;16.80;1.00;;;;;;6352527;22;20459;-80
2022/07/18 04:58:04;;;;;;;9.53;6.30;;;16.80;1.00;;;;;;6352303;22;20416;-79
2022/07/18 05:00:33;;;;;;;7.87;5.57;;;16.90;1.00;;;;;;6353250;22;20421;-79
2022/07/18 05:03:01;;;;;;;7.60;6.10;;;17.00;1.00;;;;;;6350680;22;20512;-80
2022/07/18 05:05:30;;;;;;;8.10;7.40;;;17.00;1.00;;;;;;6352305;22;20386;-80
2022/07/18 05:07:57;;;;;;;7.63;5.27;;;17.10;1.00;;;;;;6352258;22;20398;-78
2022/07/18 05:10:26;;;;;;;10.77;6.60;;;17.20;1.00;;;;;;6351787;22;20425;-78
2022/07/18 05:12:54;;;;;;;8.80;5.90;;;17.20;1.00;;;;;;6349162;22;20440;-80
2022/07/18 05:15:23;;;;;;;7.60;6.50;;;17.30;1.00;;;;;;6351567;22;20389;-79
2022/07/18 05:17:51;;;;;;;9.07;5.13;;;17.30;1.00;;;;;;6349331;22;20421;-79
2022/07/18 05:20:20;;;;;;;11.17;6.20;;;17.40;1.00;;;;;;6350151;22;20438;-80
2022/07/18 05:22:49;;;;;;;12.50;6.40;;;17.50;1.00;;;;;;6349902;22;20580;-80
2022/07/18 05:25:16;;;;;;;7.23;5.67;;;17.60;1.00;;;;;;6350545;22;20414;-79
2022/07/18 05:27:43;;;;;;;6.47;5.37;;;17.70;1.00;;;;;;6349385;22;20493;-81
2022/07/18 05:30:12;;;;;;;10.30;5.90;;;17.90;1.00;;;;;;6353924;22;20378;-80
2022/07/18 05:32:40;;;;;;;9.43;6.10;;;18.00;1.00;;;;;;6338965;22;20457;-81
2022/07/18 05:35:09;;;;;;;11.50;5.03;;;18.20;1.00;;;;;;6353474;22;20445;-80
2022/07/18 05:37:37;;;;;;;15.60;5.33;;;18.30;1.00;;;;;;6354452;22;20420;-80
2022/07/18 05:40:08;;;;;;;8.00;5.33;;;18.40;1.00;;;;;;6355804;22;20381;-81
2022/07/18 05:42:35;;;;;;;7.60;5.50;;;18.50;1.00;;;;;;6355563;22;20402;-80
2022/07/18 05:45:02;;;;;;;6.60;5.27;;;18.60;1.00;;;;;;6355153;22;20433;-80
2022/07/18 05:47:29;;;;;;;9.50;4.10;;;18.60;1.00;;;;;;6356121;22;20386;-81
2022/07/18 05:49:56;;;;;;;8.70;5.50;;;18.80;1.00;;;;;;6353766;22;20914;-81
2022/07/18 05:52:23;;;;;;;12.70;5.50;;;19.00;1.00;;;;;;6356935;22;20504;-82
2022/07/18 05:54:50;;;;;;;7.33;4.93;;;19.10;1.00;;;;;;6355671;22;20384;-79
2022/07/18 05:57:20;;;;;;;5.23;4.10;;;19.20;1.00;;;;;;6357373;22;20403;-79
2022/07/18 05:59:46;;;;;;;4.57;4.13;;;19.30;1.00;;;;;;6355875;22;20366;-79
2022/07/18 06:02:14;;;;;;;5.37;4.63;;;19.50;1.00;;;;;;6356150;22;20553;-81
2022/07/18 06:04:40;;;;;;;10.57;4.70;;;19.60;1.00;;;;;;6356438;22;20419;-79
2022/07/18 06:07:08;;;;;;;5.60;4.47;;;19.70;1.00;;;;;;6357804;22;20474;-80
2022/07/18 06:09:37;;;;;;;8.90;4.30;;;19.70;1.00;;;;;;6356278;22;21126;-79
2022/07/18 06:12:04;;;;;;;7.70;4.43;;;19.90;1.00;;;;;;6356335;22;20457;-79
2022/07/18 06:14:32;;;;;;;6.97;4.70;;;20.00;1.00;;;;;;6357991;22;20421;-81
2022/07/18 06:17:00;;;;;;;4.57;4.17;;;20.10;1.00;;;;;;6356568;22;20408;-81
2022/07/18 06:19:27;;;;;;;10.13;4.70;;;20.20;1.00;;;;;;6358040;22;20373;-81
2022/07/18 06:21:54;;;;;;;7.20;4.60;;;20.20;1.00;;;;;;6355900;22;20503;-80
2022/07/18 06:24:22;;;;;;;7.70;5.03;;;20.30;1.00;;;;;;6356200;22;20413;-80
2022/07/18 06:26:49;;;;;;;6.97;4.97;;;20.50;1.00;;;;;;6356468;22;20475;-80
2022/07/18 06:29:16;;;;;;;5.33;4.83;;;20.60;1.00;;;;;;6351019;22;20417;-81
2022/07/18 06:31:45;;;;;;;10.83;5.03;;;20.80;1.00;;;;;;6349766;22;20516;-79
2022/07/18 06:34:12;;;;;;;5.93;3.67;;;20.90;1.00;;;;;;6351988;22;20437;-80
2022/07/18 06:36:40;;;;;;;5.80;3.63;;;21.10;1.00;;;;;;6349764;22;20425;-75
2022/07/18 06:39:10;;;;;;;7.20;3.70;;;21.20;1.00;;;;;;6349047;22;20508;-78
2022/07/18 06:41:39;;;;;;;5.50;3.80;;;21.30;1.00;;;;;;6351045;22;20416;-79
2022/07/18 06:44:06;;;;;;;5.20;3.43;;;21.40;1.00;;;;;;6348154;22;20402;-79
2022/07/18 06:46:33;;;;;;;6.57;3.13;;;21.40;1.00;;;;;;6349624;22;20468;-81
2022/07/18 06:49:02;;;;;;;4.00;3.00;;;21.50;1.00;;;;;;6349840;22;20452;-79
2022/07/18 06:51:29;;;;;;;6.37;3.07;;;21.60;1.00;;;;;;6348614;22;20385;-77
2022/07/18 06:53:56;;;;;;;3.63;3.30;;;21.70;1.00;;;;;;6318529;22;20396;-78
2022/07/18 06:56:22;;;;;;;3.10;2.53;;;21.80;1.00;;;;;;6352485;22;20460;-80
2022/07/18 06:58:50;;;;;;;7.97;4.30;;;21.80;1.00;;;;;;6348955;22;20475;-79
2022/07/18 07:01:18;;;;;;;5.10;2.70;;;21.90;1.00;;;;;;6350494;22;20444;-79
2022/07/18 07:03:45;;;;;;;2.70;2.50;;;21.90;1.00;;;;;;6348927;22;20409;-79
2022/07/18 07:06:13;;;;;;;2.63;2.43;;;22.00;1.00;;;;;;6350612;22;20413;-79
2022/07/18 07:08:40;;;;;;;5.50;2.83;;;22.10;1.00;;;;;;6351727;22;20444;-77
2022/07/18 07:11:07;;;;;;;3.33;3.03;;;22.10;1.00;;;;;;6307047;22;20393;-78
2022/07/18 07:13:34;;;;;;;2.80;2.17;;;22.20;1.00;;;;;;6352854;22;20447;-79
2022/07/18 07:16:01;;;;;;;5.57;2.73;;;22.40;1.00;;;;;;6354127;22;21167;-80
2022/07/18 07:18:28;;;;;;;12.13;3.70;;;22.40;1.00;;;;;;6337384;22;20464;-81
2022/07/18 07:20:57;;;;;;;3.57;2.33;;;22.60;1.00;;;;;;6351061;22;20425;-80
2022/07/18 07:23:25;;;;;;;5.70;2.60;;;22.70;1.00;;;;;;6353729;22;20424;-79
2022/07/18 07:25:54;;;;;;;3.80;2.70;;;22.80;1.00;;;;;;6353518;22;20413;-80
2022/07/18 07:28:21;;;;;;;9.47;2.80;;;22.90;1.00;;;;;;6351821;22;20427;-78
2022/07/18 07:30:50;;;;;;;2.90;2.43;;;22.80;1.00;;;;;;6349364;22;20421;-77
2022/07/18 07:33:19;;;;;;;4.30;1.90;;;22.90;1.00;;;;;;6352001;22;20420;-78
2022/07/18 07:35:46;;;;;;;5.40;1.97;;;23.00;1.00;;;;;;6349080;22;20518;-76
2022/07/18 07:38:18;;;;;;;3.30;2.30;;;23.10;1.00;;;;;;6351336;22;20448;-77
2022/07/18 07:40:49;;;;;;;3.03;2.77;;;23.20;1.00;;;;;;6349667;22;20854;-78
2022/07/18 07:43:17;;;;;;;3.30;2.03;;;23.30;1.00;;;;;;6351421;22;20397;-80
2022/07/18 07:45:47;;;;;;;7.40;2.10;;;23.20;1.00;;;;;;6353162;22;20409;-79
2022/07/18 07:48:15;;;;;;;4.93;2.40;;;23.30;1.00;;;;;;6353996;22;20448;-80
2022/07/18 07:50:48;;;;;;;3.00;2.13;;;23.30;1.00;;;;;;6351948;22;20425;-79
2022/07/18 07:53:16;;;;;;;4.30;2.23;;;23.40;1.00;;;;;;6353781;22;20423;-78
2022/07/18 07:55:43;;;;;;;3.73;2.00;;;23.50;1.00;;;;;;6353130;22;20425;-79
2022/07/18 07:58:11;;;;;;;3.83;2.37;;;23.60;1.00;;;;;;6352061;22;20421;-79
2022/07/18 08:00:39;;;;;;;2.83;2.30;;;23.70;1.00;;;;;;6354234;22;20487;-80
2022/07/18 08:03:08;;;;;;;4.57;2.23;;;23.80;1.00;;;;;;6355139;22;20448;-79
2022/07/18 08:05:39;;;;;;;4.17;2.43;;;23.80;1.00;;;;;;6355782;22;21280;-80
2022/07/18 08:08:08;;;;;;;5.20;2.27;;;24.00;1.00;;;;;;6352316;22;20413;-79
2022/07/18 08:10:36;;;;;;;6.23;2.50;;;23.80;1.00;;;;;;6354187;22;20433;-79
2022/07/18 08:13:03;;;;;;;4.40;2.40;;;23.80;1.00;;;;;;6353870;22;20409;-79
2022/07/18 08:15:32;;;;;;;3.87;2.40;;;24.00;1.00;;;;;;6355891;22;20429;-80
2022/07/18 08:18:00;;;;;;;3.47;2.23;;;24.20;1.00;;;;;;6324738;22;20425;-79
2022/07/18 08:20:27;;;;;;;2.50;2.30;;;24.50;1.00;;;;;;6352692;22;20856;-79
2022/07/18 08:22:56;;;;;;;4.70;2.43;;;24.60;1.00;;;;;;6353905;22;20414;-80
2022/07/18 08:25:23;;;;;;;3.07;2.77;;;24.70;1.00;;;;;;6355437;22;21169;-80
2022/07/18 08:27:50;;;;;;;3.53;2.93;;;24.80;1.00;;;;;;6352928;22;20954;-79
2022/07/18 08:30:19;;;;;;;3.57;2.83;;;24.90;1.00;;;;;;6354218;22;20515;-79
2022/07/18 08:32:47;;;;;;;5.33;3.23;;;25.20;1.00;;;;;;6353164;22;20409;-79
2022/07/18 08:35:15;;;;;;;4.50;3.00;;;25.60;1.00;;;;;;6353410;22;20433;-79
2022/07/18 08:37:42;;;;;;;2.67;2.47;;;26.00;1.00;;;;;;6353723;22;20397;-80
2022/07/18 08:40:10;;;;;;;4.27;2.27;;;26.40;1.00;;;;;;6353906;22;20429;-81
2022/07/18 08:42:37;;;;;;;3.40;2.40;;;26.80;1.00;;;;;;6353156;22;20806;-78
2022/07/18 08:45:07;;;;;;;4.30;2.77;;;27.00;1.00;;;;;;6348465;22;20381;-79
2022/07/18 08:47:34;;;;;;;3.83;3.27;;;27.20;1.00;;;;;;6349237;22;20393;-79
2022/07/18 08:50:06;;;;;;;4.63;4.23;;;27.20;1.00;;;;;;6349244;22;20694;-79
2022/07/18 08:52:35;;;;;;;4.20;3.90;;;27.10;1.00;;;;;;6349394;22;20405;-77
2022/07/18 08:55:03;;;;;;;5.53;4.17;;;27.00;1.00;;;;;;6347998;22;22644;-79
2022/07/18 08:57:31;;;;;;;5.77;4.37;;;27.10;1.00;;;;;;6349665;22;20405;-78
2022/07/18 08:59:58;;;;;;;8.83;7.93;;;27.20;1.00;;;;;;6348448;22;20432;-79
2022/07/18 09:02:27;;;;;;;4.83;4.40;;;27.30;1.00;;;;;;6348675;22;20378;-78
2022/07/18 09:04:54;;;;;;;3.10;2.80;;;27.40;1.00;;;;;;6349086;22;20418;-81
2022/07/18 09:07:29;;;;;;;3.90;3.20;;;27.40;1.00;;;;;;6350026;22;20429;-80
2022/07/18 09:09:58;;;;;;;4.23;3.80;;;27.30;1.00;;;;;;6319969;22;20425;-80
2022/07/18 09:12:26;;;;;;;3.50;3.20;;;27.40;1.00;;;;;;6336022;22;20463;-78
2022/07/18 09:14:54;;;;;;;4.13;3.53;;;27.40;1.00;;;;;;6348910;22;20433;-79
2022/07/18 09:17:25;;;;;;;4.40;4.00;;;27.40;1.00;;;;;;6350006;22;20393;-79
2022/07/18 09:20:01;;;;;;;4.10;3.47;;;27.50;1.00;;;;;;6351601;22;20613;-79
2022/07/18 09:22:32;;;;;;;3.60;3.07;;;27.50;1.00;;;;;;6351383;22;20897;-79
2022/07/18 09:25:02;;;;;;;4.97;3.37;;;27.50;1.00;;;;;;6349006;22;20883;-79
2022/07/18 09:27:38;;;;;;;5.03;4.10;;;27.50;1.00;;;;;;6351771;22;20453;-79
2022/07/18 09:30:35;;;;;;;4.03;3.17;;;27.60;1.00;;;;;;6349428;22;20468;-79
2022/07/18 09:33:10;;;;;;;4.07;3.70;;;27.80;1.00;;;;;;6350817;22;20461;-79
2022/07/18 09:35:42;;;;;;;3.90;3.60;;;27.90;1.00;;;;;;6351059;22;20425;-79
2022/07/18 09:38:14;;;;;;;5.20;3.77;;;28.00;1.00;;;;;;6351187;22;20444;-79
2022/07/18 09:40:45;;;;;;;4.77;3.70;;;28.10;1.00;;;;;;6351468;22;20382;-80
2022/07/18 09:43:13;;;;;;;4.33;3.83;;;28.60;1.00;;;;;;6350155;22;20405;-79
2022/07/18 09:45:47;;;;;;;7.50;4.10;;;29.60;1.00;;;;;;6349523;22;20421;-79
2022/07/18 09:48:16;;;;;;;4.10;3.23;;;30.50;1.00;;;;;;6350671;22;20414;-77
2022/07/18 09:50:50;;;;;;;4.00;3.60;;;31.30;1.00;;;;;;6350463;22;20429;-78
2022/07/18 09:53:23;;;;;;;4.80;4.10;;;31.90;1.00;;;;;;6350768;22;20543;-80
2022/07/18 09:55:52;;;;;;;5.57;3.73;;;32.10;1.00;;;;;;6334690;22;20496;-80
2022/07/18 09:58:21;;;;;;;4.90;3.60;;;32.70;1.00;;;;;;6350369;22;20752;-80
2022/07/18 10:00:50;;;;;;;3.77;3.40;;;33.10;1.00;;;;;;6349223;22;20586;-80
2022/07/18 10:03:18;;;;;;;5.33;3.77;;;33.20;1.00;;;;;;6351560;22;20413;-80
2022/07/18 10:05:46;;;;;;;4.20;3.80;;;33.60;1.00;;;;;;6347847;22;20413;-80
2022/07/18 10:08:15;;;;;;;6.83;4.17;;;34.20;1.00;;;;;;6348944;22;20437;-80
2022/07/18 10:10:45;;;;;;;4.70;3.50;;;34.80;1.00;;;;;;6349890;22;20440;-80
2022/07/18 10:13:16;;;;;;;4.53;3.70;;;34.70;1.00;;;;;;6354401;22;20365;-77
2022/07/18 10:15:46;;;;;;;5.33;3.93;;;35.10;1.00;;;;;;6343248;22;21224;-80
2022/07/18 10:18:17;;;;;;;4.03;3.63;;;35.80;1.00;;;;;;6354276;22;20481;-81
2022/07/18 10:20:47;;;;;;;4.40;3.53;;;36.00;1.00;;;;;;6353467;22;20505;-81
2022/07/18 10:23:19;;;;;;;4.03;3.40;;;36.20;1.00;;;;;;6354399;22;20369;-76
2022/07/18 10:26:15;;;;;;;4.27;3.87;;;36.20;1.00;;;;;;6338585;22;20422;-79
2022/07/18 10:29:16;;;;;;;4.67;3.50;;;35.80;1.00;;;;;;6352075;22;20444;-77
2022/07/18 10:32:01;;;;;;;4.53;3.27;;;35.60;1.00;;;;;;6349589;22;20425;-80
2022/07/18 10:34:36;;;;;;;3.23;2.90;;;35.50;1.00;;;;;;6323000;22;20996;-79
2022/07/18 10:37:14;;;;;;;4.20;3.80;;;35.80;1.00;;;;;;6353601;22;20405;-78
2022/07/18 10:39:44;;;;;;;3.40;3.10;;;35.70;1.00;;;;;;6325122;22;20452;-79
2022/07/18 10:42:19;;;;;;;5.20;3.30;;;36.10;1.00;;;;;;6355616;22;20445;-81
2022/07/18 10:44:48;;;;;;;4.70;4.00;;;35.90;1.00;;;;;;6351897;22;20395;-80
2022/07/18 10:47:20;;;;;;;3.73;3.17;;;36.00;1.00;;;;;;6354287;22;20425;-78
2022/07/18 10:50:15;;;;;;;3.73;2.93;;;36.10;1.00;;;;;;6353243;22;20436;-81
2022/07/18 10:52:58;;;;;;;3.20;3.00;;;36.00;1.00;;;;;;6355762;22;20432;-79
2022/07/18 10:55:35;;;;;;;5.23;3.70;;;36.10;1.00;;;;;;6356844;22;20943;-78
2022/07/18 10:58:23;;;;;;;3.63;2.90;;;35.80;1.00;;;;;;6354497;22;20494;-78
2022/07/18 11:01:03;;;;;;;4.13;3.07;;;34.90;1.00;;;;;;6353231;22;20381;-78
2022/07/18 11:03:35;;;;;;;3.80;3.50;;;34.60;1.00;;;;;;6355882;22;20591;-81
2022/07/18 11:06:01;;;;;;;4.67;4.17;;;34.60;1.00;;;;;;6325185;22;20502;-81
2022/07/18 11:08:33;;;;;;;5.60;4.00;;;34.30;1.00;;;;;;6352425;22;20436;-82
2022/07/18 11:11:15;;;;;;;4.03;3.43;;;34.40;1.00;;;;;;6351309;22;20474;-75
2022/07/18 11:13:51;;;;;;;4.07;3.63;;;34.50;1.00;;;;;;6302480;22;20420;-79
2022/07/18 11:16:24;;;;;;;3.43;3.13;;;35.00;1.00;;;;;;6354597;22;20784;-77
2022/07/18 11:19:18;;;;;;;3.53;3.23;;;35.80;1.00;;;;;;6337153;22;20407;-78
2022/07/18 11:21:46;;;;;;;3.90;3.40;;;36.30;1.00;;;;;;6327565;22;20417;-78
2022/07/18 11:24:15;;;;;;;3.90;2.93;;;37.00;1.00;;;;;;6356157;22;20435;-78
2022/07/18 11:26:47;;;;;;;4.17;3.30;;;37.90;1.00;;;;;;6355519;22;20418;-78
2022/07/18 11:29:20;;;;;;;5.30;3.63;;;38.70;1.00;;;;;;6357101;22;20412;-81
2022/07/18 11:31:53;;;;;;;3.00;2.47;;;39.40;1.00;;;;;;6353306;22;20500;-80
2022/07/18 11:34:24;;;;;;;3.20;2.87;;;39.60;1.00;;;;;;6355071;22;20434;-82
2022/07/18 11:36:59;;;;;;;2.90;2.60;;;40.10;1.00;;;;;;6352064;22;20992;-76
2022/07/18 11:39:34;;;;;;;4.13;3.17;;;40.10;1.00;;;;;;6356242;22;20447;-80
2022/07/18 11:42:02;;;;;;;3.93;3.40;;;40.00;1.00;;;;;;6355538;22;20578;-81
2022/07/18 11:44:35;;;;;;;3.53;3.10;;;39.70;1.00;;;;;;6356679;22;20417;-80
2022/07/18 11:47:03;;;;;;;4.00;3.70;;;39.30;1.00;;;;;;6355519;22;20420;-82
2022/07/18 11:49:34;;;;;;;3.50;3.20;;;38.90;1.00;;;;;;6328185;22;20405;-81
2022/07/18 11:52:01;;;;;;;3.57;3.27;;;38.70;1.00;;;;;;6353603;22;20422;-78
2022/07/18 11:54:36;;;;;;;4.23;3.83;;;38.30;1.00;;;;;;6355006;22;20448;-80
2022/07/18 11:57:04;;;;;;;4.10;3.70;;;38.40;1.00;;;;;;6354713;22;20415;-80
2022/07/18 11:59:40;;;;;;;3.77;3.47;;;38.70;1.00;;;;;;6340062;22;20403;-78
2022/07/18 12:02:08;;;;;;;4.03;3.67;;;39.70;1.00;;;;;;6354212;22;20430;-79
2022/07/18 12:04:37;;;;;;;7.70;4.57;;;39.90;1.00;;;;;;6354580;22;20448;-79
2022/07/18 12:07:17;;;;;;;4.10;3.70;;;40.10;1.00;;;;;;6352837;22;20418;-78
2022/07/18 12:09:45;;;;;;;4.50;3.87;;;40.80;1.00;;;;;;6354105;22;20397;-79
2022/07/18 12:12:17;;;;;;;6.67;3.90;;;41.10;1.00;;;;;;6354515;22;20416;-81
2022/07/18 12:14:56;;;;;;;4.13;3.73;;;41.40;1.00;;;;;;6355638;22;20960;-81
2022/07/18 12:17:26;;;;;;;4.27;3.90;;;41.20;1.00;;;;;;6354675;22;20885;-79
2022/07/18 12:20:15;;;;;;;7.10;3.93;;;40.90;1.00;;;;;;6353858;22;20389;-81
2022/07/18 12:23:07;;;;;;;3.70;3.50;;;40.60;1.00;;;;;;6329045;22;20425;-77
2022/07/18 12:25:39;;;;;;;6.87;4.53;;;39.90;1.00;;;;;;6356067;22;20398;-79
2022/07/18 12:28:18;;;;;;;4.07;3.47;;;39.90;1.00;;;;;;6339497;22;20437;-79
2022/07/18 12:30:47;;;;;;;5.03;3.90;;;39.70;1.00;;;;;;6353009;22;20417;-79
2022/07/18 12:33:15;;;;;;;4.37;4.07;;;39.10;1.00;;;;;;6355473;22;20410;-78
2022/07/18 12:35:43;;;;;;;5.97;4.37;;;38.40;1.00;;;;;;6354355;22;20421;-80
2022/07/18 12:38:11;;;;;;;4.77;4.37;;;37.60;1.00;;;;;;6353436;22;20413;-77
2022/07/18 12:40:47;;;;;;;5.07;4.67;;;37.00;1.00;;;;;;6353254;22;20472;-82
2022/07/18 12:43:25;;;;;;;4.13;3.73;;;36.50;1.00;;;;;;6354829;22;20409;-81
2022/07/18 12:45:58;;;;;;;4.13;3.80;;;35.40;1.00;;;;;;6328639;22;20460;-78
2022/07/18 12:48:28;;;;;;;3.77;3.47;;;35.00;1.00;;;;;;6355578;22;20496;-81
2022/07/18 12:51:00;;;;;;;4.27;3.87;;;34.60;1.00;;;;;;6354256;22;20405;-78
2022/07/18 12:53:28;;;;;;;4.63;3.80;;;35.00;1.00;;;;;;6354245;22;20885;-77
2022/07/18 12:55:55;;;;;;;4.37;3.97;;;35.60;1.00;;;;;;6355742;22;20385;-79
2022/07/18 12:58:22;;;;;;;5.07;4.53;;;35.40;1.00;;;;;;6357208;22;20436;-81
2022/07/18 13:00:55;;;;;;;4.33;3.93;;;35.50;1.00;;;;;;6356566;22;20418;-81
2022/07/18 13:03:23;;;;;;;4.43;4.00;;;35.50;1.00;;;;;;6356405;22;20417;-80
2022/07/18 13:05:54;;;;;;;4.40;4.00;;;35.50;1.00;;;;;;6354616;22;20397;-78
2022/07/18 13:08:23;;;;;;;5.03;4.53;;;36.20;1.00;;;;;;6355911;22;20413;-77
2022/07/18 13:10:53;;;;;;;4.80;4.30;;;37.40;1.00;;;;;;6354163;22;20468;-77